Flight Track Log - Related Links

Times and Time Zones

All times are in EDT time to prevent confusion due to time zone crossing. See the PDT4386 flight status page for this flight to view local times or setup timezone preferences in your user account.

Time Position Orientation Groundspeed Altitude Reporting Facility
EDT Latitude Longitude Course Direction KTS MPH feet Rate Location/Type
Fri 02:50:18 PM 40.7667 -73.1333 217° Southwest 133 153 2,200  Level New York TRACON
Fri 02:51:18 PM 40.7667 -73.0667 90° East 195 224 3,100 1,013 Climbing New York TRACON
Fri 02:52:00 PM 40.6681 -73.4042 225° Southwest  Level Estimated
Fri 02:52:52 PM 40.7817 -72.9597 79° East 196 226 4,800  Level Boston Center
Fri 02:53:00 PM 40.6362 -73.4800 180° South  Level Estimated
Fri 02:53:55 PM 40.7753 -72.8853 96° East 204 235 5,800  Level Boston Center
Fri 02:54:00 PM 40.6043 -73.5557 217° Southwest  Level Estimated
Fri 02:54:56 PM 40.7667 -72.8167 99° East 196 226 7,000  Level Boston Center
Fri 02:55:56 PM 40.7550 -72.7453 102° East 199 229 7,700 843 Climbing Boston Center
Fri 02:56:57 PM 40.7431 -72.6692 102° East 212 244 8,700 919 Climbing Boston Center
Fri 02:58:00 PM 40.7294 -72.6011 105° East 194 223 9,600 634 Climbing Boston Center
Fri 02:59:00 PM 40.7081 -72.6297 225° Southwest 131 151 10,000 198 Climbing Boston Center
Fri 03:00:01 PM 40.6731 -72.6622 215° Southwest 151 174 10,000  Level Boston Center
Fri 03:01:02 PM 40.6283 -72.7069 217° Southwest 167 192 10,000  Level Boston Center
Fri 03:02:02 PM 40.5958 -72.7506 226° Southwest 168 193 10,000  Level Boston Center
Fri 03:03:06 PM 40.5622 -72.7939 224° Southwest 169 194 10,000  Level Boston Center
Fri 03:04:06 PM 40.5261 -72.8314 218° Southwest 165 190 10,000  Level Boston Center
Fri 03:05:07 PM 40.4894 -72.8667 216° Southwest 164 189 10,000  Level Boston Center
Fri 03:06:08 PM 40.4550 -72.9078 222° Southwest 166 191 10,000  Level Boston Center
Fri 03:07:09 PM 40.4219 -72.9469 222° Southwest 161 185 10,000  Level Boston Center
Fri 03:08:10 PM 40.3881 -72.9892 224° Southwest 166 191 10,000  Level Boston Center
Fri 03:08:45 PM 40.3653 -73.0211 227° Southwest 164 189 10,000  Level New York Center
Fri 03:09:45 PM 40.3333 -73.0556 219° Southwest 169 194 10,000  Level New York Center
Fri 03:10:45 PM 40.2931 -73.0950 217° Southwest 169 194 10,000  Level New York Center
Fri 03:11:45 PM 40.2611 -73.1319 221° Southwest 169 194 10,000  Level New York Center
Fri 03:12:45 PM 40.2247 -73.1769 223° Southwest 169 194 10,000  Level New York Center
Fri 03:13:45 PM 40.1947 -73.2139 223° Southwest 169 194 10,000  Level New York Center
Fri 03:15:21 PM 40.1386 -73.2722 218° Southwest 164 189 10,000  Level Boston Center
Fri 03:16:22 PM 40.1053 -73.3117 222° Southwest 162 186 10,000  Level Boston Center
Fri 03:17:23 PM 40.0708 -73.3506 221° Southwest 164 189 10,000 -98 Level Boston Center
Fri 03:18:24 PM 40.0389 -73.3894 223° Southwest 158 182 9,800 -347 Descending Boston Center
Fri 03:19:24 PM 40.0186 -73.4375 241° Southwest 150 173 9,300 -496 Descending Boston Center
Fri 03:20:25 PM 39.9989 -73.4836 241° Southwest 147 169 8,800 -524 Descending Boston Center
Fri 03:21:30 PM 39.9719 -73.5381 237° Southwest 148 170 8,200 -381 Descending Boston Center
Fri 03:22:31 PM 39.9469 -73.5836 234° Southwest 152 175 8,000 -89 Descending Boston Center
Fri 03:23:45 PM 39.9119 -73.6503 236° Southwest 167 192 8,000  Level New York Center
Fri 03:24:45 PM 39.8917 -73.7064 245° Southwest 167 192 8,000  Level New York Center
Fri 03:25:45 PM 39.8653 -73.7567 236° Southwest 167 192 8,000  Level New York Center
Fri 03:26:45 PM 39.8431 -73.8097 241° Southwest 167 192 8,000  Level New York Center
Fri 03:27:45 PM 39.8169 -73.8600 236° Southwest 167 192 8,000  Level New York Center
Fri 03:28:45 PM 39.7928 -73.9047 235° Southwest 167 192 8,000  Level New York Center
Fri 03:29:45 PM 39.7683 -73.9550 238° Southwest 167 192 8,000  Level New York Center
Fri 03:30:45 PM 39.7397 -74.0131 237° Southwest 167 192 8,000 -67 Level New York Center
Fri 03:32:43 PM 39.6939 -74.1064 237° Southwest 170 196 7,800 -371 Descending Boston Center
Fri 03:33:43 PM 39.6683 -74.1564 236° Southwest 167 192 6,900 -919 Descending Boston Center
Fri 03:34:47 PM 39.6397 -74.2056 233° Southwest 169 194 5,900 -372 Descending Boston Center
Fri 03:41:31 PM 39.5667 -74.5833 256° West 173 199 4,000 -256 Descending Philadelphia TRACON
Fri 03:42:13 PM 39.5667 -74.6333 270° West 171 197 4,000  Level Philadelphia TRACON
Fri 03:43:13 PM 39.5500 -74.7000 252° West 175 201 4,000  Level Philadelphia TRACON
Fri 03:44:13 PM 39.5500 -74.7667 270° West 178 205 4,000  Level Philadelphia TRACON
Fri 03:45:13 PM 39.5500 -74.8333 270° West 179 206 4,000  Level Philadelphia TRACON
Fri 03:46:13 PM 39.5500 -74.8833 270° West 180 207 4,000  Level Philadelphia TRACON
Fri 03:47:13 PM 39.5500 -74.9500 270° West 182 209 4,000  Level Philadelphia TRACON
Fri 03:48:13 PM 39.5667 -75.0167 288° West 205 236 4,000 -50 Level Philadelphia TRACON
Fri 03:49:13 PM 39.6000 -75.0500 322° Northwest 202 232 3,900 -650 Descending Philadelphia TRACON
Fri 03:50:13 PM 39.6500 -75.1000 322° Northwest 197 227 2,700 -1,000 Descending Philadelphia TRACON
Fri 03:51:13 PM 39.7000 -75.1333 333° Northwest 177 204 1,900 -545 Descending Philadelphia TRACON
Fri 03:52:14 PM 39.7333 -75.1500 339° North 143 165 1,600 -149 Descending Philadelphia TRACON
Fri 03:53:14 PM 39.7667 -75.1833 322° Northwest 149 171 1,600 -150 Level Philadelphia TRACON
Fri 03:54:14 PM 39.8000 -75.2000 339° North 150 173 1,300 -421 Descending Philadelphia TRACON
Fri 03:55:08 PM 39.8333 -75.2167 339° North 134 154 800 -556 Descending Philadelphia TRACON

Login

Don't have an account? Register now (free) for customized features, flight alerts, and more!